Terminal Aerodrome Forecast
Issued by NWS Northern Indiana

Home | Current Version | Previous Version | Graphics & Text | Print | Product List | Glossary On
Versions: 1 2 3 4 5 6 7 8 9 10 11 12 13 14 15 16 17 18 19 20
000
FTUS43 KIWX 151400 AAA
TAFFWA
TAF AMD
KFWA 151408Z 1514/1612 16006KT 4SM BR SCT010 BKN250
     FM151700 17009KT 6SM HZ OVC015
     FM160100 13012KT 3SM -RA BR OVC006=

USA.gov is the U.S. government's official web portal to all federal, state and local government web resources and services.